createdAt,value
2019-06-07T00:00:02.875Z,16.47
2019-06-07T00:02:33.789Z,15.17
2019-06-07T00:05:07.682Z,16.77
2019-06-07T00:07:38.167Z,15.20
2019-06-07T00:10:10.041Z,16.20
2019-06-07T00:12:41.048Z,15.30
2019-06-07T00:15:19.995Z,17.40
2019-06-07T00:17:43.867Z,17.03
2019-06-07T00:20:19.027Z,16.03
2019-06-07T00:22:46.375Z,17.70
2019-06-07T00:25:23.808Z,18.07
2019-06-07T00:27:49.434Z,17.23
2019-06-07T00:30:39.428Z,16.70
2019-06-07T00:32:52.312Z,16.50
2019-06-07T00:35:22.713Z,15.60
2019-06-07T00:37:52.957Z,16.47
2019-06-07T00:40:31.561Z,16.37
2019-06-07T00:42:55.125Z,15.90
2019-06-07T00:45:25.456Z,15.57
2019-06-07T00:47:55.833Z,16.23
2019-06-07T00:50:26.468Z,16.77
2019-06-07T00:53:14.510Z,16.03
2019-06-07T00:55:28.911Z,16.70
2019-06-07T00:57:59.469Z,15.80
2019-06-07T01:00:30.109Z,16.10
2019-06-07T01:03:00.507Z,16.47
2019-06-07T01:05:31.707Z,16.40
2019-06-07T01:08:16.137Z,15.90
2019-06-07T01:10:53.523Z,18.97
2019-06-07T01:13:19.469Z,19.47
2019-06-07T01:15:50.422Z,20.63
2019-06-07T01:18:41.006Z,19.60
2019-06-07T01:20:53.526Z,19.37
2019-06-07T01:24:01.388Z,19.37
2019-06-07T01:25:56.536Z,19.97
2019-06-07T01:28:29.980Z,18.80
2019-06-07T01:30:59.313Z,17.53
2019-06-07T01:33:49.776Z,17.23
2019-06-07T01:36:01.929Z,16.80
2019-06-07T01:38:32.153Z,17.40
2019-06-07T01:41:02.409Z,16.70
2019-06-07T01:43:32.723Z,16.97
2019-06-07T01:46:03.329Z,18.00
2019-06-07T01:48:48.965Z,17.43
2019-06-07T01:51:06.355Z,18.90
2019-06-07T01:53:36.888Z,18.67
2019-06-07T01:56:07.345Z,18.37
2019-06-07T01:58:37.597Z,19.63
2019-06-07T02:01:08.113Z,20.07
2019-06-07T02:03:38.345Z,21.00
2019-06-07T02:06:08.771Z,20.20
2019-06-07T02:08:39.249Z,19.27
2019-06-07T02:11:09.584Z,20.50
2019-06-07T02:13:40.228Z,20.70
2019-06-07T02:16:10.841Z,18.93
2019-06-07T02:19:00.824Z,18.33
2019-06-07T02:21:14.156Z,19.50
2019-06-07T02:23:44.856Z,18.80
2019-06-07T02:26:15.192Z,17.47
2019-06-07T02:28:45.878Z,18.83
2019-06-07T02:31:16.422Z,19.87
2019-06-07T02:33:47.102Z,19.60
2019-06-07T02:36:17.345Z,19.67
2019-06-07T02:38:47.585Z,18.07
2019-06-07T02:41:18.160Z,18.67
2019-06-07T02:43:48.642Z,19.23
2019-06-07T02:46:38.532Z,19.13
2019-06-07T02:48:59.864Z,18.10
2019-06-07T02:51:35.841Z,18.30
2019-06-07T02:54:02.388Z,18.33
2019-06-07T02:56:48.865Z,18.33
2019-06-07T02:59:04.750Z,17.30
2019-06-07T03:01:41.213Z,18.33
2019-06-07T03:04:08.561Z,16.90
2019-06-07T03:06:43.799Z,17.40
2019-06-07T03:09:13.990Z,17.90
2019-06-07T03:11:46.413Z,17.90
2019-06-07T03:14:19.713Z,17.30
2019-06-07T03:16:52.011Z,17.50
2019-06-07T03:19:28.886Z,17.07
2019-06-07T03:21:59.339Z,16.27
2019-06-07T03:24:33.696Z,15.63
2019-06-07T03:29:37.065Z,16.90
2019-06-07T03:32:07.447Z,16.90
2019-06-07T03:34:42.757Z,16.20
2019-06-07T03:37:10.078Z,14.63
2019-06-07T03:39:41.150Z,14.57
2019-06-07T03:42:11.530Z,15.57
2019-06-07T03:44:42.089Z,14.47
2019-06-07T03:47:12.824Z,15.00
2019-06-07T03:49:43.910Z,14.17
2019-06-07T03:52:14.517Z,14.03
2019-06-07T03:54:45.113Z,13.43
2019-06-07T03:57:15.776Z,13.77
2019-06-07T03:59:46.511Z,13.17
2019-06-07T04:02:17.009Z,13.00
2019-06-07T04:04:47.332Z,13.23
2019-06-07T04:07:17.534Z,12.87
2019-06-07T04:09:48.161Z,12.50
2019-06-07T04:12:18.483Z,13.17
2019-06-07T04:14:48.933Z,12.77
2019-06-07T04:17:19.343Z,13.07
2019-06-07T04:19:49.790Z,12.63
2019-06-07T04:22:20.208Z,12.27
2019-06-07T04:24:50.517Z,13.53
2019-06-07T04:27:21.107Z,13.27
2019-06-07T04:30:06.378Z,13.63
2019-06-07T04:32:23.857Z,13.10
2019-06-07T04:34:54.397Z,13.27
2019-06-07T04:37:28.493Z,13.33
2019-06-07T04:40:00.021Z,13.27
2019-06-07T04:42:35.101Z,12.67
2019-06-07T04:45:05.825Z,12.83
2019-06-07T04:47:39.604Z,12.33
2019-06-07T04:50:10.423Z,13.03
2019-06-07T04:52:44.930Z,12.97
2019-06-07T04:55:12.883Z,12.87
2019-06-07T04:57:43.490Z,12.47
2019-06-07T05:00:46.788Z,12.50
2019-06-07T05:02:48.034Z,11.80
2019-06-07T05:05:18.452Z,11.23
2019-06-07T05:07:48.877Z,11.23
2019-06-07T05:10:19.274Z,11.83
2019-06-07T05:12:49.759Z,11.10
2019-06-07T05:15:20.510Z,13.60
2019-06-07T05:17:51.546Z,11.90
2019-06-07T05:20:22.040Z,11.43
2019-06-07T05:22:52.789Z,10.90
2019-06-07T05:25:23.238Z,10.67
2019-06-07T05:27:53.542Z,10.57
2019-06-07T05:33:11.276Z,9.93
2019-06-07T05:35:43.521Z,9.73
2019-06-07T05:38:15.053Z,9.93
2019-06-07T05:40:48.666Z,9.33
2019-06-07T05:43:26.489Z,9.70
2019-06-07T05:45:57.033Z,9.00
2019-06-07T05:48:27.644Z,9.20
2019-06-07T05:50:58.073Z,9.50
2019-06-07T05:53:28.755Z,9.57
2019-06-07T05:55:59.131Z,9.10
2019-06-07T05:58:29.652Z,8.97
2019-06-07T06:01:41.098Z,8.53
2019-06-07T06:03:34.585Z,8.90
2019-06-07T06:06:04.508Z,8.60
2019-06-07T06:08:36.599Z,9.00
2019-06-07T06:11:06.723Z,9.13
2019-06-07T06:13:54.630Z,8.60
2019-06-07T06:16:09.060Z,8.27
2019-06-07T06:18:40.751Z,8.13
2019-06-07T06:21:19.436Z,7.50
2019-06-07T06:23:45.885Z,7.90
2019-06-07T06:26:16.034Z,8.13
2019-06-07T06:28:46.530Z,8.43
2019-06-07T06:31:17.042Z,7.67
2019-06-07T06:33:49.552Z,7.93
2019-06-07T06:36:20.450Z,8.43
2019-06-07T06:38:51.737Z,8.03
2019-06-07T06:41:22.017Z,7.90
2019-06-07T06:43:52.831Z,7.97
2019-06-07T06:48:11.921Z,7.37
2019-06-07T06:50:44.389Z,7.37
2019-06-07T06:53:14.502Z,7.37
2019-06-07T06:55:57.147Z,7.20
2019-06-07T06:58:27.733Z,7.03
2019-06-07T07:01:06.707Z,7.70
2019-06-07T07:03:56.853Z,7.00
2019-06-07T07:06:24.795Z,7.20
2019-06-07T07:08:36.577Z,7.47
2019-06-07T07:11:06.896Z,7.40
2019-06-07T07:13:37.451Z,6.53
2019-06-07T07:16:07.897Z,7.20
2019-06-07T07:18:38.309Z,6.73
2019-06-07T07:21:08.757Z,6.87
2019-06-07T07:23:39.443Z,7.73
2019-06-07T07:26:09.906Z,6.80
2019-06-07T07:28:40.445Z,7.17
2019-06-07T07:31:12.697Z,6.97
2019-06-07T07:36:38.273Z,6.83
2019-06-07T07:39:00.420Z,6.30
2019-06-07T07:41:26.514Z,6.80
2019-06-07T07:44:05.982Z,6.50
2019-06-07T07:46:30.218Z,6.27
2019-06-07T07:49:00.966Z,6.57
2019-06-07T07:51:31.735Z,6.53
2019-06-07T07:54:10.890Z,6.63
2019-06-07T07:56:34.714Z,6.20
2019-06-07T07:59:05.832Z,6.70
2019-06-07T08:01:36.521Z,7.13
2019-06-07T08:04:07.114Z,7.40
2019-06-07T08:06:37.537Z,6.67
2019-06-07T08:09:08.479Z,6.37
2019-06-07T08:11:39.040Z,6.77
2019-06-07T08:14:09.565Z,7.17
2019-06-07T08:16:39.891Z,6.67
2019-06-07T08:19:10.306Z,6.30
2019-06-07T08:21:41.586Z,6.10
2019-06-07T08:24:12.062Z,6.50
2019-06-07T08:26:42.725Z,6.53
2019-06-07T08:29:13.434Z,6.47
2019-06-07T08:31:44.231Z,6.50
2019-06-07T08:34:14.644Z,7.20
2019-06-07T08:36:45.408Z,6.70
2019-06-07T08:39:15.993Z,6.67
2019-06-07T08:42:00.436Z,6.90
2019-06-07T08:44:23.972Z,7.20
2019-06-07T08:46:56.580Z,6.57
2019-06-07T08:49:22.861Z,6.57
2019-06-07T08:52:02.621Z,6.60
2019-06-07T08:54:25.587Z,6.60
2019-06-07T08:57:15.048Z,7.17
2019-06-07T08:59:28.206Z,7.30
2019-06-07T09:02:03.274Z,7.10
2019-06-07T09:04:30.763Z,7.37
2019-06-07T09:07:10.398Z,7.50
2019-06-07T09:09:33.338Z,7.03
2019-06-07T09:12:08.303Z,7.60
2019-06-07T09:14:56.502Z,7.20
2019-06-07T09:17:12.041Z,7.10
2019-06-07T09:19:40.420Z,6.50
2019-06-07T09:22:11.674Z,7.03
2019-06-07T09:24:42.396Z,7.60
2019-06-07T09:27:13.874Z,6.23
2019-06-07T09:29:44.642Z,6.17
2019-06-07T09:32:18.387Z,6.67
2019-06-07T09:34:47.192Z,6.60
2019-06-07T09:38:03.792Z,6.27
2019-06-07T09:39:49.676Z,6.47
2019-06-07T09:42:20.229Z,6.77
2019-06-07T09:44:50.549Z,6.60
2019-06-07T09:47:31.894Z,6.80
2019-06-07T09:49:53.261Z,7.07
2019-06-07T09:52:23.582Z,7.27
2019-06-07T09:55:22.774Z,7.60
2019-06-07T09:57:26.362Z,7.53
2019-06-07T09:59:57.949Z,6.83
2019-06-07T10:02:29.489Z,7.30
2019-06-07T10:05:04.074Z,7.03
2019-06-07T10:07:32.300Z,7.70
2019-06-07T10:10:22.389Z,7.40
2019-06-07T10:12:36.166Z,7.53
2019-06-07T10:15:07.093Z,6.93
2019-06-07T10:17:37.666Z,7.53
2019-06-07T10:20:09.847Z,7.47
2019-06-07T10:22:40.452Z,7.13
2019-06-07T10:25:10.975Z,7.87
2019-06-07T10:27:41.562Z,7.20
2019-06-07T10:30:12.541Z,7.23
2019-06-07T10:32:42.916Z,7.27
2019-06-07T10:35:16.325Z,7.57
2019-06-07T10:37:46.048Z,7.30
2019-06-07T10:40:17.138Z,7.00
2019-06-07T10:42:47.642Z,7.67
2019-06-07T10:45:18.323Z,7.33
2019-06-07T10:47:48.725Z,7.23
2019-06-07T10:50:19.286Z,7.60
2019-06-07T10:52:50.016Z,7.40
2019-06-07T10:55:20.684Z,6.90
2019-06-07T10:57:51.090Z,7.90
2019-06-07T11:00:22.229Z,7.67
2019-06-07T11:02:55.047Z,8.00
2019-06-07T11:05:25.069Z,7.53
2019-06-07T11:07:55.829Z,7.53
2019-06-07T11:10:26.131Z,8.10
2019-06-07T11:12:56.441Z,7.13
2019-06-07T11:15:27.014Z,7.77
2019-06-07T11:17:57.620Z,7.53
2019-06-07T11:20:27.949Z,7.60
2019-06-07T11:22:58.289Z,7.87
2019-06-07T11:25:28.612Z,7.70
2019-06-07T11:27:58.876Z,7.83
2019-06-07T11:30:29.336Z,7.50
2019-06-07T11:32:59.705Z,7.20
2019-06-07T11:35:30.186Z,7.77
2019-06-07T11:38:00.762Z,7.93
2019-06-07T11:40:35.706Z,7.60
2019-06-07T11:43:03.141Z,7.73
2019-06-07T11:45:33.464Z,7.30
2019-06-07T11:48:04.193Z,8.57
2019-06-07T11:50:34.866Z,7.47
2019-06-07T11:53:06.480Z,8.60
2019-06-07T11:55:37.433Z,7.77
2019-06-07T11:58:11.668Z,7.97
2019-06-07T12:00:40.180Z,8.60
2019-06-07T12:03:11.583Z,8.37
2019-06-07T12:05:42.207Z,8.57
2019-06-07T12:08:13.929Z,8.30
2019-06-07T12:10:44.632Z,8.33
2019-06-07T12:13:15.500Z,8.20
2019-06-07T12:15:49.181Z,8.77
2019-06-07T12:18:19.704Z,8.80
2019-06-07T12:20:50.293Z,8.20
2019-06-07T12:23:20.854Z,8.67
2019-06-07T12:25:51.424Z,8.70
2019-06-07T12:28:22.065Z,8.83
2019-06-07T12:30:55.101Z,10.20
2019-06-07T12:33:24.713Z,8.93
2019-06-07T12:35:55.469Z,8.67
2019-06-07T12:38:25.893Z,8.87
2019-06-07T12:40:57.817Z,9.50
2019-06-07T12:43:29.164Z,9.67
2019-06-07T12:45:59.562Z,7.90
2019-06-07T12:48:30.143Z,8.87
2019-06-07T12:51:00.641Z,9.27
2019-06-07T12:53:31.002Z,8.57
2019-06-07T12:56:01.583Z,9.00
2019-06-07T12:58:36.160Z,9.63
2019-06-07T13:01:04.487Z,8.00
2019-06-07T13:03:35.216Z,8.70
2019-06-07T13:06:05.890Z,8.53
2019-06-07T13:08:36.240Z,8.73
2019-06-07T13:11:16.100Z,8.70
2019-06-07T13:13:38.669Z,8.90
2019-06-07T13:16:09.258Z,8.50
2019-06-07T13:18:39.816Z,9.00
2019-06-07T13:21:10.609Z,9.13
2019-06-07T13:23:44.227Z,9.43
2019-06-07T13:26:13.163Z,8.90
2019-06-07T13:28:43.385Z,9.53
2019-06-07T13:31:14.053Z,9.83
2019-06-07T13:33:44.372Z,9.23
2019-06-07T13:36:16.051Z,9.73
2019-06-07T13:38:46.710Z,8.63
2019-06-07T13:41:30.310Z,9.60
2019-06-07T13:43:51.658Z,9.87
2019-06-07T13:46:23.027Z,9.13
2019-06-07T13:48:53.745Z,9.37
2019-06-07T13:51:25.181Z,8.70
2019-06-07T13:53:56.143Z,9.53
2019-06-07T13:56:28.243Z,8.93
2019-06-07T13:58:58.872Z,9.57
2019-06-07T14:01:29.493Z,9.17
2019-06-07T14:04:00.266Z,9.20
2019-06-07T14:06:30.913Z,9.10
2019-06-07T14:09:01.340Z,8.80
2019-06-07T14:11:49.562Z,9.37
2019-06-07T14:14:04.477Z,9.03
2019-06-07T14:16:34.972Z,8.47
2019-06-07T14:19:05.655Z,9.23
2019-06-07T14:21:36.413Z,9.43
2019-06-07T14:24:06.873Z,8.37
2019-06-07T14:26:37.679Z,9.20
2019-06-07T14:29:08.340Z,9.07
2019-06-07T14:31:38.657Z,9.23
2019-06-07T14:34:09.236Z,9.27
2019-06-07T14:36:39.646Z,10.03
2019-06-07T14:39:09.946Z,10.03
2019-06-07T14:41:40.301Z,9.50
2019-06-07T14:44:10.521Z,9.20
2019-06-07T14:46:41.250Z,9.73
2019-06-07T14:49:11.846Z,9.60
2019-06-07T14:51:42.506Z,10.00
2019-06-07T14:54:13.151Z,9.40
2019-06-07T14:56:43.827Z,9.63
2019-06-07T14:59:14.510Z,10.57
2019-06-07T15:01:45.104Z,10.17
2019-06-07T15:04:15.677Z,9.40
2019-06-07T15:06:46.280Z,10.07
2019-06-07T15:09:17.098Z,8.67
2019-06-07T15:11:47.448Z,9.70
2019-06-07T15:14:18.054Z,9.37
2019-06-07T15:16:48.564Z,9.53
2019-06-07T15:19:19.173Z,9.57
2019-06-07T15:21:49.677Z,10.27
2019-06-07T15:24:20.081Z,9.23
2019-06-07T15:26:50.645Z,8.97
2019-06-07T15:29:21.185Z,9.30
2019-06-07T15:31:51.472Z,9.37
2019-06-07T15:34:21.736Z,9.60
2019-06-07T15:36:52.369Z,9.27
2019-06-07T15:39:22.737Z,9.90
2019-06-07T15:41:53.366Z,9.97
2019-06-07T15:44:23.662Z,10.40
2019-06-07T15:46:54.061Z,10.37
2019-06-07T15:49:24.453Z,9.90
2019-06-07T15:51:54.940Z,9.97
2019-06-07T15:54:25.405Z,9.57
2019-06-07T15:56:56.050Z,9.30
2019-06-07T15:59:26.737Z,10.43
2019-06-07T16:01:57.511Z,9.97
2019-06-07T16:04:28.091Z,11.07
2019-06-07T16:06:58.624Z,10.30
2019-06-07T16:09:29.141Z,10.97
2019-06-07T16:11:59.691Z,10.97
2019-06-07T16:14:30.010Z,10.60
2019-06-07T16:17:00.404Z,10.73
2019-06-07T16:19:30.866Z,10.20
2019-06-07T16:22:01.395Z,11.30
2019-06-07T16:24:31.995Z,10.80
2019-06-07T16:27:02.453Z,11.13
2019-06-07T16:29:32.626Z,10.53
2019-06-07T16:32:02.945Z,10.87
2019-06-07T16:34:33.455Z,10.27
2019-06-07T16:37:05.534Z,10.60
2019-06-07T16:39:36.433Z,10.37
2019-06-07T16:42:07.034Z,11.20
2019-06-07T16:44:38.728Z,10.40
2019-06-07T16:47:09.221Z,11.93
2019-06-07T16:49:40.749Z,10.70
2019-06-07T16:52:11.554Z,10.43
2019-06-07T16:54:43.506Z,11.20
2019-06-07T16:57:14.170Z,10.90
2019-06-07T16:59:48.678Z,10.83
2019-06-07T17:02:16.887Z,11.23
2019-06-07T17:04:47.912Z,11.13
2019-06-07T17:07:18.389Z,10.20
2019-06-07T17:09:49.536Z,10.53
2019-06-07T17:12:20.113Z,10.57
2019-06-07T17:14:50.365Z,10.57
2019-06-07T17:17:20.777Z,10.07
2019-06-07T17:19:51.208Z,11.47
2019-06-07T17:22:21.606Z,10.80
2019-06-07T17:24:51.984Z,10.47
2019-06-07T17:27:22.449Z,11.13
2019-06-07T17:29:52.780Z,11.30
2019-06-07T17:32:23.256Z,10.97
2019-06-07T17:34:53.617Z,10.23
2019-06-07T17:37:24.235Z,11.57
2019-06-07T17:39:54.804Z,10.87
2019-06-07T17:42:25.500Z,10.33
2019-06-07T17:44:56.161Z,10.37
2019-06-07T17:47:26.730Z,10.83
2019-06-07T17:49:57.109Z,11.03
2019-06-07T17:52:27.349Z,11.23
2019-06-07T17:54:57.775Z,11.47
2019-06-07T17:57:28.104Z,10.47
2019-06-07T17:59:58.717Z,12.00
2019-06-07T18:02:29.467Z,11.83
2019-06-07T18:05:00.014Z,11.47
2019-06-07T18:07:32.069Z,11.47
2019-06-07T18:10:03.253Z,12.10
2019-06-07T18:12:33.848Z,10.73
2019-06-07T18:15:07.586Z,11.20
2019-06-07T18:17:37.981Z,11.90
2019-06-07T18:20:10.005Z,12.40
2019-06-07T18:22:40.550Z,14.77
2019-06-07T18:25:11.388Z,12.30
2019-06-07T18:27:41.896Z,12.30
2019-06-07T18:30:12.335Z,12.87
2019-06-07T18:32:43.057Z,11.50
2019-06-07T18:35:15.404Z,11.77
2019-06-07T18:37:46.814Z,12.33
2019-06-07T18:40:17.521Z,13.07
2019-06-07T18:42:49.084Z,11.97
2019-06-07T18:45:19.945Z,13.63
2019-06-07T18:47:51.398Z,12.37
2019-06-07T18:50:22.104Z,13.60
2019-06-07T18:52:52.747Z,15.93
2019-06-07T18:55:23.410Z,13.17
2019-06-07T18:57:54.449Z,13.20
2019-06-07T19:00:25.944Z,13.40
2019-06-07T19:02:56.386Z,13.47
2019-06-07T19:05:26.793Z,13.93
2019-06-07T19:07:59.649Z,12.90
2019-06-07T19:10:29.955Z,12.23
2019-06-07T19:13:00.706Z,12.73
2019-06-07T19:15:31.410Z,11.83
2019-06-07T19:18:02.246Z,12.63
2019-06-07T19:20:32.716Z,13.03
2019-06-07T19:23:03.322Z,14.07
2019-06-07T19:25:33.769Z,14.23
2019-06-07T19:28:04.622Z,13.37
2019-06-07T19:30:35.301Z,11.57
2019-06-07T19:33:06.041Z,16.40
2019-06-07T19:35:36.678Z,12.60
2019-06-07T19:38:07.534Z,13.33
2019-06-07T19:40:37.943Z,13.97
2019-06-07T19:43:08.714Z,15.20
2019-06-07T19:45:39.369Z,20.57
2019-06-07T19:48:09.977Z,15.20
2019-06-07T19:50:40.753Z,13.50
2019-06-07T19:53:11.401Z,15.40
2019-06-07T19:55:42.034Z,15.90
2019-06-07T19:58:13.214Z,16.47
2019-06-07T20:00:43.717Z,16.37
2019-06-07T20:03:26.542Z,15.90
2019-06-07T20:05:58.084Z,16.80
2019-06-07T20:08:28.701Z,18.03
2019-06-07T20:11:00.371Z,20.03
2019-06-07T20:13:31.252Z,19.07
2019-06-07T20:16:21.208Z,19.10
2019-06-07T20:18:51.516Z,18.53
2019-06-07T20:21:21.757Z,17.20
2019-06-07T20:24:22.783Z,16.77
2019-06-07T20:26:36.166Z,16.67
2019-06-07T20:29:14.585Z,17.17
2019-06-07T20:31:38.431Z,18.63
2019-06-07T20:34:09.251Z,18.97
2019-06-07T20:36:39.558Z,17.33
2019-06-07T20:39:10.091Z,18.07
2019-06-07T20:41:40.753Z,18.33
2019-06-07T20:44:11.003Z,17.90
2019-06-07T20:46:41.466Z,18.17
2019-06-07T20:49:11.918Z,17.73
2019-06-07T20:51:42.308Z,17.63
2019-06-07T20:54:12.818Z,18.13
2019-06-07T20:56:43.123Z,19.33
2019-06-07T20:59:13.645Z,18.07
2019-06-07T21:01:44.250Z,19.70
2019-06-07T21:04:14.755Z,21.27
2019-06-07T21:06:45.269Z,21.07
2019-06-07T21:09:15.582Z,19.70
2019-06-07T21:11:46.297Z,19.97
2019-06-07T21:14:16.533Z,20.00
2019-06-07T21:16:46.748Z,21.87
2019-06-07T21:19:17.189Z,19.10
2019-06-07T21:21:47.773Z,20.83
2019-06-07T21:24:18.389Z,17.07
2019-06-07T21:26:49.131Z,16.80
2019-06-07T21:29:19.494Z,18.80
2019-06-07T21:31:50.081Z,17.90
2019-06-07T21:34:20.617Z,18.93
2019-06-07T21:36:51.133Z,18.33
2019-06-07T21:39:21.844Z,17.80
2019-06-07T21:41:52.425Z,20.13
2019-06-07T21:44:22.998Z,18.17
2019-06-07T21:46:53.677Z,18.37
2019-06-07T21:49:23.895Z,20.07
2019-06-07T21:51:54.397Z,19.13
2019-06-07T21:54:24.730Z,18.70
2019-06-07T21:56:54.966Z,18.07
2019-06-07T21:59:25.674Z,19.83
2019-06-07T22:01:56.250Z,19.97
2019-06-07T22:04:26.500Z,20.23
2019-06-07T22:06:57.353Z,19.80
2019-06-07T22:09:27.669Z,18.33
2019-06-07T22:11:58.178Z,19.60
2019-06-07T22:14:28.658Z,21.07
2019-06-07T22:16:59.138Z,20.73
2019-06-07T22:19:29.983Z,22.57
2019-06-07T22:22:02.993Z,21.17
2019-06-07T22:24:32.690Z,20.97
2019-06-07T22:27:03.057Z,23.87
2019-06-07T22:29:33.566Z,20.67
2019-06-07T22:32:04.134Z,20.33
2019-06-07T22:34:34.430Z,20.67
2019-06-07T22:37:04.753Z,19.87
2019-06-07T22:39:35.245Z,23.60
2019-06-07T22:42:06.430Z,21.03
2019-06-07T22:44:39.982Z,21.77
2019-06-07T22:47:10.023Z,21.53
2019-06-07T22:49:40.347Z,22.97
2019-06-07T22:52:13.446Z,22.17
2019-06-07T22:54:43.112Z,20.67
2019-06-07T22:57:18.416Z,21.83
2019-06-07T22:59:48.965Z,22.60
2019-06-07T23:02:19.576Z,20.90
2019-06-07T23:04:50.239Z,22.23
2019-06-07T23:07:20.538Z,22.80
2019-06-07T23:09:51.042Z,22.77
2019-06-07T23:12:21.446Z,23.07
2019-06-07T23:14:51.740Z,23.23
2019-06-07T23:17:22.089Z,23.50
2019-06-07T23:19:52.512Z,23.07
2019-06-07T23:22:23.045Z,22.83
2019-06-07T23:24:53.585Z,25.90
2019-06-07T23:27:24.122Z,23.27
2019-06-07T23:29:54.749Z,22.93
2019-06-07T23:32:25.060Z,22.10
2019-06-07T23:34:55.348Z,24.17
2019-06-07T23:37:25.800Z,23.93
2019-06-07T23:39:56.552Z,25.80
2019-06-07T23:42:27.157Z,25.67
2019-06-07T23:44:57.512Z,27.30
2019-06-07T23:47:28.062Z,26.00
2019-06-07T23:49:58.495Z,28.23
2019-06-07T23:52:28.968Z,25.00
2019-06-07T23:54:59.470Z,25.80
2019-06-07T23:57:30.000Z,24.67
